createdAt,value
2024-01-29T00:04:18.338Z,0.00
2024-01-29T00:19:19.011Z,8.00
2024-01-29T00:34:19.644Z,4.00
2024-01-29T00:49:20.287Z,4.00
2024-01-29T01:04:20.835Z,0.00
2024-01-29T01:19:21.418Z,0.00
2024-01-29T01:34:22.189Z,0.00
2024-01-29T01:49:22.507Z,4.00
2024-01-29T02:04:23.432Z,0.00
2024-01-29T02:19:23.517Z,4.00
2024-01-29T02:34:24.152Z,4.00
2024-01-29T02:49:24.901Z,8.00
2024-01-29T03:04:25.467Z,12.00
2024-01-29T03:19:26.019Z,0.00
2024-01-29T03:34:26.539Z,4.00
2024-01-29T03:49:27.353Z,24.00
2024-01-29T04:04:27.910Z,8.00
2024-01-29T04:19:28.433Z,28.00
2024-01-29T04:34:28.935Z,28.00
2024-01-29T04:49:29.331Z,56.00
2024-01-29T05:04:29.874Z,48.00
2024-01-29T05:19:30.451Z,56.00
2024-01-29T05:34:30.744Z,32.00
2024-01-29T05:49:31.509Z,84.00
2024-01-29T06:04:31.970Z,48.00
2024-01-29T06:19:32.418Z,60.00
2024-01-29T06:34:32.800Z,80.00
2024-01-29T06:49:33.421Z,116.00
2024-01-29T07:04:34.063Z,132.00
2024-01-29T07:19:34.979Z,128.00
2024-01-29T07:34:35.372Z,104.00
2024-01-29T08:04:36.254Z,64.00
2024-01-29T08:19:36.662Z,88.00
2024-01-29T08:34:36.984Z,104.00
2024-01-29T08:49:37.721Z,80.00
2024-01-29T09:04:38.477Z,112.00
2024-01-29T09:19:38.923Z,92.00
2024-01-29T09:34:39.742Z,60.00
2024-01-29T09:49:40.492Z,88.00
2024-01-29T10:04:41.222Z,92.00
2024-01-29T10:19:41.880Z,92.00
2024-01-29T10:34:42.601Z,156.00
2024-01-29T10:49:42.989Z,92.00
2024-01-29T11:04:44.124Z,144.00
2024-01-29T11:19:44.218Z,132.00
2024-01-29T11:34:44.715Z,128.00
2024-01-29T11:49:45.590Z,116.00
2024-01-29T12:04:46.270Z,96.00
2024-01-29T12:19:46.732Z,148.00
2024-01-29T12:34:47.354Z,112.00
2024-01-29T12:49:48.114Z,132.00
2024-01-29T13:04:48.309Z,132.00
2024-01-29T13:19:49.078Z,108.00
2024-01-29T13:34:49.681Z,144.00
2024-01-29T13:49:49.980Z,208.00
2024-01-29T14:04:51.885Z,188.00
2024-01-29T14:19:55.494Z,184.00
2024-01-29T14:34:53.600Z,184.00
2024-01-29T14:49:52.880Z,224.00
2024-01-29T15:04:53.893Z,228.00
2024-01-29T15:19:54.484Z,220.00
2024-01-29T15:34:55.181Z,240.00
2024-01-29T15:49:55.511Z,184.00
2024-01-29T16:04:56.086Z,152.00
2024-01-29T16:19:57.350Z,228.00
2024-01-29T16:34:57.708Z,252.00
2024-01-29T16:49:58.172Z,172.00
2024-01-29T17:04:59.037Z,192.00
2024-01-29T17:19:59.427Z,140.00
2024-01-29T17:34:59.851Z,76.00
2024-01-29T17:50:00.178Z,84.00
2024-01-29T18:05:00.513Z,96.00
2024-01-29T18:20:01.374Z,132.00
2024-01-29T18:35:02.092Z,44.00
2024-01-29T18:50:02.702Z,56.00
2024-01-29T19:05:03.289Z,52.00
2024-01-29T19:20:03.701Z,52.00
2024-01-29T19:35:04.152Z,64.00
2024-01-29T19:50:04.695Z,56.00
2024-01-29T20:05:05.055Z,36.00
2024-01-29T20:20:05.501Z,32.00
2024-01-29T20:35:06.060Z,48.00
2024-01-29T20:50:06.775Z,12.00
2024-01-29T21:05:07.242Z,28.00
2024-01-29T21:20:07.741Z,24.00
2024-01-29T21:35:08.161Z,24.00
2024-01-29T21:50:08.597Z,28.00
2024-01-29T22:05:08.998Z,48.00
2024-01-29T22:20:09.636Z,228.00
2024-01-29T22:35:10.534Z,300.00
2024-01-29T22:50:10.984Z,276.00
2024-01-29T23:05:11.415Z,192.00
2024-01-29T23:20:11.868Z,12.00
2024-01-29T23:35:12.347Z,20.00
2024-01-29T23:50:12.838Z,4.00
